createdAt,value
2023-02-22T00:00:22.929Z,99732.44
2023-02-22T00:02:51.832Z,99731.06
2023-02-22T00:05:19.878Z,99730.50
2023-02-22T00:07:50.246Z,99727.00
2023-02-22T00:10:18.271Z,99730.53
2023-02-22T00:12:45.685Z,99737.44
2023-02-22T00:15:14.890Z,99724.03
2023-02-22T00:17:42.537Z,99718.84
2023-02-22T00:20:11.015Z,99721.25
2023-02-22T00:22:38.128Z,99716.16
2023-02-22T00:25:07.003Z,99709.31
2023-02-22T00:27:33.846Z,99708.03
2023-02-22T00:30:00.840Z,99708.75
2023-02-22T00:32:27.987Z,99706.94
2023-02-22T00:34:55.152Z,99712.75
2023-02-22T00:37:25.006Z,99709.41
2023-02-22T00:39:52.075Z,99711.44
2023-02-22T00:42:20.467Z,99701.84
2023-02-22T00:44:47.301Z,99707.03
2023-02-22T00:47:14.275Z,99707.16
2023-02-22T00:49:41.556Z,99702.38
2023-02-22T00:52:09.901Z,99704.72
2023-02-22T00:54:36.788Z,99701.06
2023-02-22T00:57:04.084Z,99694.28
2023-02-22T00:59:32.334Z,99696.28
2023-02-22T01:01:59.301Z,99700.53
2023-02-22T01:04:26.626Z,99689.81
2023-02-22T01:06:53.593Z,99693.59
2023-02-22T01:09:20.543Z,99697.56
2023-02-22T01:11:47.873Z,99686.66
2023-02-22T01:14:15.364Z,99681.31
2023-02-22T01:16:43.745Z,99674.75
2023-02-22T01:19:10.591Z,99678.06
2023-02-22T01:21:39.297Z,99671.63
2023-02-22T01:24:07.128Z,99676.53
2023-02-22T01:26:34.362Z,99677.91
2023-02-22T01:29:01.366Z,99671.47
2023-02-22T01:31:30.165Z,99667.03
2023-02-22T01:33:59.824Z,99667.31
2023-02-22T01:36:26.691Z,99679.63
2023-02-22T01:38:53.618Z,99669.19
2023-02-22T01:41:20.881Z,99664.78
2023-02-22T01:43:47.950Z,99670.78
2023-02-22T01:46:24.888Z,99666.06
2023-02-22T01:48:58.889Z,99668.75
2023-02-22T01:51:36.436Z,99665.22
2023-02-22T01:54:13.070Z,99665.41
2023-02-22T01:56:48.474Z,99656.38
2023-02-22T01:59:15.290Z,99651.38
2023-02-22T02:01:43.046Z,99650.06
2023-02-22T02:04:16.496Z,99651.09
2023-02-22T02:06:47.035Z,99646.38
2023-02-22T02:09:24.634Z,99641.66
2023-02-22T02:11:51.776Z,99641.84
2023-02-22T02:14:21.732Z,99639.09
2023-02-22T02:16:52.063Z,99642.75
2023-02-22T02:19:45.587Z,99631.94
2023-02-22T02:22:39.995Z,99623.03
2023-02-22T02:25:40.562Z,99627.75
2023-02-22T02:28:54.572Z,99624.25
2023-02-22T02:32:08.873Z,99615.56
2023-02-22T02:34:55.081Z,99621.75
2023-02-22T02:37:34.866Z,99614.91
2023-02-22T02:40:20.846Z,99614.66
2023-02-22T02:42:58.284Z,99612.34
2023-02-22T02:45:35.830Z,99616.84
2023-02-22T02:48:08.903Z,99612.34
2023-02-22T02:50:46.856Z,99603.81
2023-02-22T02:53:20.643Z,99614.91
2023-02-22T02:55:47.808Z,99599.84
2023-02-22T02:58:21.515Z,99602.16
2023-02-22T03:00:54.450Z,99604.84
2023-02-22T03:03:50.969Z,99598.56
2023-02-22T03:06:52.349Z,99595.72
2023-02-22T03:09:38.416Z,99595.88
2023-02-22T03:12:24.491Z,99587.56
2023-02-22T03:15:08.264Z,99587.94
2023-02-22T03:17:50.929Z,99599.84
2023-02-22T03:20:28.891Z,99592.72
2023-02-22T03:23:04.377Z,99580.69
2023-02-22T03:25:38.754Z,99587.25
2023-02-22T03:28:12.676Z,99586.03
2023-02-22T03:30:48.072Z,99584.94
2023-02-22T03:33:23.949Z,99578.75
2023-02-22T03:35:59.439Z,99576.91
2023-02-22T03:38:33.298Z,99573.03
2023-02-22T03:41:04.318Z,99562.50
2023-02-22T03:43:38.685Z,99576.34
2023-02-22T03:46:14.380Z,99571.00
2023-02-22T03:48:51.841Z,99566.38
2023-02-22T03:51:19.218Z,99570.09
2023-02-22T03:53:52.068Z,99574.41
2023-02-22T03:56:30.145Z,99570.09
2023-02-22T03:58:57.139Z,99568.69
2023-02-22T04:01:24.108Z,99565.00
2023-02-22T04:03:52.366Z,99576.34
2023-02-22T04:06:19.743Z,99569.34
2023-02-22T04:08:58.560Z,99568.22
2023-02-22T04:11:25.776Z,99577.44
2023-02-22T04:13:52.720Z,99579.47
2023-02-22T04:16:19.976Z,99584.19
2023-02-22T04:18:47.403Z,99589.91
2023-02-22T04:21:18.674Z,99582.91
2023-02-22T04:23:47.586Z,99577.53
2023-02-22T04:26:16.737Z,99576.34
2023-02-22T04:28:48.192Z,99571.16
2023-02-22T04:31:19.546Z,99573.38
2023-02-22T04:33:47.323Z,99567.19
2023-02-22T04:36:18.179Z,99580.28
2023-02-22T04:38:45.785Z,99576.59
2023-02-22T04:41:13.156Z,99578.09
2023-02-22T04:43:41.481Z,99558.03
2023-02-22T04:46:16.346Z,99559.91
2023-02-22T04:48:44.745Z,99568.00
2023-02-22T04:51:13.751Z,99565.66
2023-02-22T04:53:50.470Z,99569.31
2023-02-22T04:56:18.074Z,99568.06
2023-02-22T04:58:46.511Z,99565.22
2023-02-22T05:01:15.376Z,99559.63
2023-02-22T05:03:44.044Z,99561.59
2023-02-22T05:06:11.025Z,99561.72
2023-02-22T05:08:38.256Z,99557.03
2023-02-22T05:11:05.792Z,99562.84
2023-02-22T05:13:32.808Z,99559.97
2023-02-22T05:16:01.590Z,99558.97
2023-02-22T05:18:29.055Z,99560.47
2023-02-22T05:20:56.300Z,99551.41
2023-02-22T05:23:23.073Z,99557.78
2023-02-22T05:25:49.881Z,99558.41
2023-02-22T05:28:17.152Z,99554.75
2023-02-22T05:30:44.428Z,99554.75
2023-02-22T05:33:13.068Z,99552.09
2023-02-22T05:35:40.090Z,99554.09
2023-02-22T05:38:07.599Z,99557.44
2023-02-22T05:40:34.786Z,99549.41
2023-02-22T05:43:02.183Z,99550.22
2023-02-22T05:45:30.046Z,99543.88
2023-02-22T05:47:56.884Z,99553.06
2023-02-22T05:50:26.276Z,99541.19
2023-02-22T05:52:53.907Z,99545.53
2023-02-22T05:55:23.524Z,99547.84
2023-02-22T05:57:52.034Z,99552.66
2023-02-22T06:00:22.329Z,99546.81
2023-02-22T06:02:55.013Z,99549.13
2023-02-22T06:05:22.043Z,99554.31
2023-02-22T06:07:50.549Z,99553.50
2023-02-22T06:10:18.061Z,99551.63
2023-02-22T06:12:44.843Z,99552.16
2023-02-22T06:15:11.797Z,99556.53
2023-02-22T06:17:38.676Z,99558.25
2023-02-22T06:20:06.615Z,99558.06
2023-02-22T06:22:33.490Z,99557.06
2023-02-22T06:25:03.405Z,99555.69
2023-02-22T06:27:31.552Z,99559.56
2023-02-22T06:30:00.586Z,99559.22
2023-02-22T06:32:27.974Z,99556.63
2023-02-22T06:34:54.916Z,99557.41
2023-02-22T06:37:22.755Z,99571.34
2023-02-22T06:39:49.618Z,99555.22
2023-02-22T06:42:17.903Z,99568.06
2023-02-22T06:44:44.787Z,99565.75
2023-02-22T06:47:11.819Z,99569.41
2023-02-22T06:49:38.625Z,99580.94
2023-02-22T06:52:08.205Z,99576.00
2023-02-22T06:54:35.612Z,99583.97
2023-02-22T06:57:02.558Z,99587.56
2023-02-22T06:59:30.855Z,99583.25
2023-02-22T07:01:57.613Z,99594.94
2023-02-22T07:04:25.087Z,99594.06
2023-02-22T07:06:51.897Z,99584.16
2023-02-22T07:09:18.882Z,99593.84
2023-02-22T07:11:45.760Z,99593.09
2023-02-22T07:14:12.634Z,99597.25
2023-02-22T07:16:41.089Z,99590.63
2023-02-22T07:19:07.935Z,99590.31
2023-02-22T07:21:35.254Z,99586.41
2023-02-22T07:24:03.992Z,99591.00
2023-02-22T07:26:39.875Z,99587.69
2023-02-22T07:29:12.148Z,99600.81
2023-02-22T07:31:41.160Z,99601.63
2023-02-22T07:34:08.099Z,99599.78
2023-02-22T07:36:36.464Z,99604.53
2023-02-22T07:39:03.484Z,99598.78
2023-02-22T07:41:30.302Z,99607.88
2023-02-22T07:43:57.372Z,99607.94
2023-02-22T07:46:24.104Z,99604.69
2023-02-22T07:48:52.251Z,99594.78
2023-02-22T07:51:19.258Z,99597.50
2023-02-22T07:53:46.281Z,99596.66
2023-02-22T07:56:13.229Z,99603.72
2023-02-22T07:58:40.529Z,99593.88
2023-02-22T08:01:07.335Z,99593.31
2023-02-22T08:03:35.165Z,99594.78
2023-02-22T08:06:06.698Z,99591.03
2023-02-22T08:08:33.808Z,99593.34
2023-02-22T08:11:00.630Z,99588.69
2023-02-22T08:13:27.747Z,99585.03
2023-02-22T08:15:55.292Z,99589.47
2023-02-22T08:18:25.116Z,99590.56
2023-02-22T08:20:54.096Z,99579.66
2023-02-22T08:23:25.474Z,99584.19
2023-02-22T08:25:53.509Z,99584.09
2023-02-22T08:28:24.167Z,99578.56
2023-02-22T08:30:52.390Z,99584.03
2023-02-22T08:33:20.153Z,99574.34
2023-02-22T08:35:49.228Z,99572.56
2023-02-22T08:38:20.895Z,99577.06
2023-02-22T08:40:49.994Z,99571.97
2023-02-22T08:43:17.538Z,99575.47
2023-02-22T08:45:45.319Z,99570.72
2023-02-22T08:48:12.632Z,99568.22
2023-02-22T08:50:40.393Z,99574.03
2023-02-22T08:53:09.132Z,99560.91
2023-02-22T08:55:39.150Z,99566.94
2023-02-22T08:58:08.741Z,99562.31
2023-02-22T09:00:37.591Z,99567.56
2023-02-22T09:03:07.810Z,99565.06
2023-02-22T09:05:34.847Z,99569.38
2023-02-22T09:08:02.084Z,99567.13
2023-02-22T09:10:32.245Z,99566.41
2023-02-22T09:13:01.379Z,99567.03
2023-02-22T09:15:30.476Z,99558.03
2023-02-22T09:17:57.724Z,99555.88
2023-02-22T09:20:25.519Z,99556.22
2023-02-22T09:22:53.720Z,99559.28
2023-02-22T09:25:22.039Z,99558.69
2023-02-22T09:27:51.259Z,99555.34
2023-02-22T09:30:24.350Z,99554.09
2023-02-22T09:32:55.789Z,99550.78
2023-02-22T09:35:23.590Z,99539.13
2023-02-22T09:37:51.318Z,99542.19
2023-02-22T09:40:19.172Z,99541.03
2023-02-22T09:43:07.279Z,99537.50
2023-02-22T09:45:42.871Z,99529.06
2023-02-22T09:48:22.100Z,99528.59
2023-02-22T09:50:57.789Z,99528.88
2023-02-22T09:53:31.986Z,99524.44
2023-02-22T09:56:06.770Z,99517.63
2023-02-22T09:58:41.824Z,99524.75
2023-02-22T10:01:27.105Z,99513.50
2023-02-22T10:04:06.044Z,99511.28
2023-02-22T10:06:35.230Z,99520.91
2023-02-22T10:09:04.024Z,99511.84
2023-02-22T10:11:49.420Z,99514.88
2023-02-22T10:14:48.701Z,99518.97
2023-02-22T10:17:29.619Z,99515.59
2023-02-22T10:20:21.740Z,99509.88
2023-02-22T10:23:10.663Z,99510.09
2023-02-22T10:25:42.105Z,99508.50
2023-02-22T10:28:19.164Z,99515.13
2023-02-22T10:30:51.282Z,99511.66
2023-02-22T10:33:23.084Z,99511.53
2023-02-22T10:35:54.003Z,99512.28
2023-02-22T10:38:24.925Z,99503.03
2023-02-22T10:41:00.777Z,99503.19
2023-02-22T10:43:28.157Z,99497.88
2023-02-22T10:46:02.552Z,99497.78
2023-02-22T10:48:34.807Z,99496.50
2023-02-22T10:51:08.101Z,99497.09
2023-02-22T10:53:36.649Z,99502.22
2023-02-22T10:56:14.641Z,99489.50
2023-02-22T10:58:51.263Z,99491.06
2023-02-22T11:01:22.069Z,99490.38
2023-02-22T11:04:03.584Z,99488.56
2023-02-22T11:06:34.591Z,99479.38
2023-02-22T11:09:11.464Z,99488.31
2023-02-22T11:11:41.467Z,99477.69
2023-02-22T11:14:10.174Z,99474.13
2023-02-22T11:16:42.445Z,99464.91
2023-02-22T11:19:20.146Z,99476.25
2023-02-22T11:21:51.726Z,99468.63
2023-02-22T11:24:22.564Z,99468.53
2023-02-22T11:26:56.610Z,99465.47
2023-02-22T11:29:30.588Z,99461.16
2023-02-22T11:32:04.242Z,99463.34
2023-02-22T11:34:36.805Z,99467.22
2023-02-22T11:37:29.356Z,99452.97
2023-02-22T11:40:17.122Z,99449.81
2023-02-22T11:42:44.053Z,99450.69
2023-02-22T11:45:15.363Z,99448.47
2023-02-22T11:47:54.207Z,99442.19
2023-02-22T11:50:32.810Z,99440.97
2023-02-22T11:53:21.885Z,99445.41
2023-02-22T11:56:10.720Z,99439.69
2023-02-22T11:58:48.280Z,99429.69
2023-02-22T12:01:31.387Z,99432.31
2023-02-22T12:04:50.878Z,99424.53
2023-02-22T12:07:40.998Z,99428.53
2023-02-22T12:10:23.764Z,99420.75
2023-02-22T12:13:17.073Z,99420.81
2023-02-22T12:15:54.652Z,99411.81
2023-02-22T12:18:33.856Z,99413.50
2023-02-22T12:21:07.292Z,99405.56
2023-02-22T12:23:46.041Z,99397.63
2023-02-22T12:26:25.184Z,99403.94
2023-02-22T12:29:01.218Z,99398.53
2023-02-22T12:31:32.859Z,99399.88
2023-02-22T12:34:10.049Z,99396.03
2023-02-22T12:36:45.336Z,99400.16
2023-02-22T12:39:47.196Z,99401.00
2023-02-22T12:42:29.424Z,99392.03
2023-02-22T12:45:07.385Z,99393.41
2023-02-22T12:47:47.554Z,99395.31
2023-02-22T12:50:24.005Z,99398.31
2023-02-22T12:52:59.545Z,99391.47
2023-02-22T12:55:36.900Z,99391.44
2023-02-22T12:58:17.655Z,99389.50
2023-02-22T13:00:51.641Z,99387.56
2023-02-22T13:03:34.572Z,99387.00
2023-02-22T13:06:28.897Z,99385.41
2023-02-22T13:09:26.069Z,99385.91
2023-02-22T13:12:09.046Z,99389.75
2023-02-22T13:14:51.466Z,99384.25
2023-02-22T13:17:32.406Z,99387.38
2023-02-22T13:20:05.651Z,99384.00
2023-02-22T13:22:46.726Z,99380.63
2023-02-22T13:25:19.218Z,99379.72
2023-02-22T13:27:52.705Z,99373.50
2023-02-22T13:30:35.103Z,99379.31
2023-02-22T13:33:34.320Z,99374.81
2023-02-22T13:36:17.423Z,99361.97
2023-02-22T13:39:26.403Z,99366.28
2023-02-22T13:42:14.655Z,99368.06
2023-02-22T13:45:24.636Z,99361.34
2023-02-22T13:48:35.205Z,99362.78
2023-02-22T13:51:14.417Z,99360.06
2023-02-22T13:53:52.769Z,99360.66
2023-02-22T13:56:21.318Z,99351.63
2023-02-22T13:58:52.189Z,99356.41
2023-02-22T14:01:48.137Z,99359.47
2023-02-22T14:04:45.614Z,99360.31
2023-02-22T14:07:54.023Z,99353.28
2023-02-22T14:10:45.887Z,99355.22
2023-02-22T14:13:14.351Z,99355.97
2023-02-22T14:16:20.687Z,99350.50
2023-02-22T14:19:02.622Z,99352.22
2023-02-22T14:21:31.199Z,99348.41
2023-02-22T14:24:09.616Z,99345.63
2023-02-22T14:26:39.503Z,99349.06
2023-02-22T14:29:18.464Z,99344.13
2023-02-22T14:32:05.143Z,99339.16
2023-02-22T14:34:48.106Z,99341.22
2023-02-22T14:37:21.020Z,99355.03
2023-02-22T14:39:52.319Z,99347.38
2023-02-22T14:42:31.401Z,99350.06
2023-02-22T14:45:05.244Z,99351.13
2023-02-22T14:47:43.582Z,99353.06
2023-02-22T14:50:20.389Z,99347.03
2023-02-22T14:53:01.433Z,99346.50
2023-02-22T14:55:34.019Z,99345.09
2023-02-22T14:58:09.727Z,99351.53
2023-02-22T15:00:40.250Z,99349.31
2023-02-22T15:03:24.911Z,99338.38
2023-02-22T15:05:51.727Z,99345.44
2023-02-22T15:08:19.893Z,99343.81
2023-02-22T15:10:50.517Z,99337.75
2023-02-22T15:13:23.159Z,99351.31
2023-02-22T15:15:57.760Z,99346.97
2023-02-22T15:18:33.247Z,99350.81
2023-02-22T15:21:10.105Z,99345.34
2023-02-22T15:23:46.819Z,99345.88
2023-02-22T15:26:20.436Z,99353.78
2023-02-22T15:28:48.273Z,99344.22
2023-02-22T15:31:26.168Z,99348.28
2023-02-22T15:33:54.044Z,99347.72
2023-02-22T15:36:26.799Z,99355.06
2023-02-22T15:38:55.423Z,99362.09
2023-02-22T15:41:32.672Z,99343.81
2023-02-22T15:44:21.269Z,99357.69
2023-02-22T15:46:50.118Z,99347.28
2023-02-22T15:49:23.088Z,99347.22
2023-02-22T15:52:06.982Z,99350.53
2023-02-22T15:54:44.478Z,99352.13
2023-02-22T15:57:16.549Z,99351.81
2023-02-22T15:59:51.222Z,99346.78
2023-02-22T16:02:38.972Z,99343.00
2023-02-22T16:05:10.276Z,99351.16
2023-02-22T16:07:42.632Z,99348.28
2023-02-22T16:10:31.196Z,99350.44
2023-02-22T16:13:19.079Z,99351.44
2023-02-22T16:16:02.674Z,99347.00
2023-02-22T16:18:36.824Z,99352.13
2023-02-22T16:21:10.223Z,99346.63
2023-02-22T16:23:49.981Z,99350.91
2023-02-22T16:26:28.097Z,99349.75
2023-02-22T16:29:00.834Z,99343.44
2023-02-22T16:31:30.512Z,99356.72
2023-02-22T16:33:57.764Z,99358.50
2023-02-22T16:36:39.020Z,99349.97
2023-02-22T16:39:08.033Z,99356.66
2023-02-22T16:41:36.284Z,99353.84
2023-02-22T16:44:03.757Z,99353.69
2023-02-22T16:46:30.606Z,99353.63
2023-02-22T16:48:57.760Z,99356.13
2023-02-22T16:51:28.709Z,99363.88
2023-02-22T16:53:56.760Z,99364.81
2023-02-22T16:56:31.027Z,99372.31
2023-02-22T16:59:05.702Z,99369.88
2023-02-22T17:04:26.338Z,99373.97
2023-02-22T17:06:53.463Z,99368.19
2023-02-22T17:09:20.448Z,99362.69
2023-02-22T17:11:51.194Z,99374.28
2023-02-22T17:14:23.002Z,99372.75
2023-02-22T17:16:49.945Z,99381.03
2023-02-22T17:19:21.012Z,99382.22
2023-02-22T17:21:48.731Z,99384.25
2023-02-22T17:24:19.889Z,99386.28
2023-02-22T17:26:46.696Z,99383.22
2023-02-22T17:29:13.706Z,99386.06
2023-02-22T17:31:42.321Z,99395.50
2023-02-22T17:34:09.850Z,99392.66
2023-02-22T17:36:37.830Z,99394.22
2023-02-22T17:39:05.765Z,99402.22
2023-02-22T17:41:32.886Z,99396.69
2023-02-22T17:43:59.868Z,99398.28
2023-02-22T17:46:26.849Z,99401.00
2023-02-22T17:48:55.404Z,99396.88
2023-02-22T17:51:25.226Z,99409.34
2023-02-22T17:53:52.134Z,99410.97
2023-02-22T17:56:21.688Z,99415.56
2023-02-22T17:58:53.444Z,99408.09
2023-02-22T18:01:23.529Z,99412.25
2023-02-22T18:03:51.074Z,99407.47
2023-02-22T18:06:25.011Z,99403.72
2023-02-22T18:08:55.794Z,99414.53
2023-02-22T18:11:24.704Z,99411.63
2023-02-22T18:13:52.105Z,99406.34
2023-02-22T18:16:19.501Z,99415.56
2023-02-22T18:18:46.457Z,99407.00
2023-02-22T18:21:13.974Z,99409.94
2023-02-22T18:23:43.166Z,99415.66
2023-02-22T18:26:16.615Z,99411.16
2023-02-22T18:28:45.379Z,99413.69
2023-02-22T18:31:15.644Z,99413.91
2023-02-22T18:33:43.296Z,99412.72
2023-02-22T18:36:11.480Z,99414.88
2023-02-22T18:38:53.024Z,99420.06
2023-02-22T18:41:22.886Z,99415.91
2023-02-22T18:43:49.674Z,99416.22
2023-02-22T18:46:20.062Z,99413.78
2023-02-22T18:48:48.914Z,99415.94
2023-02-22T18:51:17.339Z,99417.97
2023-02-22T18:53:47.166Z,99419.19
2023-02-22T18:56:19.265Z,99418.91
2023-02-22T18:58:47.581Z,99412.44
2023-02-22T19:01:17.983Z,99421.19
2023-02-22T19:03:45.466Z,99412.91
2023-02-22T19:06:14.353Z,99415.19
2023-02-22T19:08:43.489Z,99416.66
2023-02-22T19:11:13.828Z,99417.47
2023-02-22T19:13:42.043Z,99414.09
2023-02-22T19:16:10.381Z,99410.72
2023-02-22T19:18:37.662Z,99420.81
2023-02-22T19:21:06.991Z,99419.53
2023-02-22T19:23:35.372Z,99421.72
2023-02-22T19:26:04.463Z,99419.75
2023-02-22T19:28:31.456Z,99418.06
2023-02-22T19:31:11.485Z,99419.09
2023-02-22T19:33:39.014Z,99425.03
2023-02-22T19:36:09.234Z,99422.19
2023-02-22T19:38:36.387Z,99427.38
2023-02-22T19:41:10.268Z,99423.81
2023-02-22T19:43:37.483Z,99427.91
2023-02-22T19:46:08.201Z,99423.88
2023-02-22T19:48:44.225Z,99430.69
2023-02-22T19:51:15.222Z,99431.97
2023-02-22T19:53:43.785Z,99428.00
2023-02-22T19:56:13.399Z,99425.22
2023-02-22T19:58:44.893Z,99430.69
2023-02-22T20:01:18.079Z,99428.41
2023-02-22T20:03:45.353Z,99428.63
2023-02-22T20:06:12.205Z,99428.84
2023-02-22T20:08:42.558Z,99436.81
2023-02-22T20:11:10.838Z,99430.34
2023-02-22T20:13:38.888Z,99430.28
2023-02-22T20:16:07.521Z,99428.16
2023-02-22T20:18:36.187Z,99431.50
2023-02-22T20:21:07.552Z,99429.06
2023-02-22T20:23:34.523Z,99424.09
2023-02-22T20:26:01.766Z,99428.50
2023-02-22T20:28:28.859Z,99433.25
2023-02-22T20:30:55.768Z,99432.03
2023-02-22T20:33:23.190Z,99424.97
2023-02-22T20:35:52.889Z,99435.13
2023-02-22T20:38:19.824Z,99432.59
2023-02-22T20:40:46.905Z,99433.56
2023-02-22T20:47:17.289Z,99440.47
2023-02-22T20:49:44.189Z,99441.72
2023-02-22T20:52:13.026Z,99437.53
2023-02-22T20:54:40.340Z,99432.59
2023-02-22T20:57:07.251Z,99431.34
2023-02-22T20:59:34.749Z,99436.94
2023-02-22T21:02:02.567Z,99435.66
2023-02-22T21:04:31.655Z,99443.38
2023-02-22T21:06:59.159Z,99437.72
2023-02-22T21:09:50.684Z,99440.72
2023-02-22T21:12:17.833Z,99440.00
2023-02-22T21:14:44.890Z,99432.25
2023-02-22T21:17:11.772Z,99441.03
2023-02-22T21:19:38.556Z,99440.81
2023-02-22T21:22:05.384Z,99435.84
2023-02-22T21:24:32.834Z,99439.25
2023-02-22T21:27:01.630Z,99431.75
2023-02-22T21:29:29.470Z,99437.25
2023-02-22T21:31:56.709Z,99432.50
2023-02-22T21:34:24.116Z,99431.47
2023-02-22T21:36:51.479Z,99435.75
2023-02-22T21:39:18.557Z,99434.69
2023-02-22T21:41:47.909Z,99438.63
2023-02-22T21:44:18.810Z,99435.06
2023-02-22T21:46:45.894Z,99434.25
2023-02-22T21:49:12.711Z,99445.63
2023-02-22T21:51:39.790Z,99440.84
2023-02-22T21:54:09.740Z,99436.50
2023-02-22T21:56:39.665Z,99442.94
2023-02-22T21:59:10.976Z,99440.47
2023-02-22T22:01:43.782Z,99447.16
2023-02-22T22:04:11.027Z,99446.31
2023-02-22T22:06:37.873Z,99450.63
2023-02-22T22:09:04.766Z,99440.44
2023-02-22T22:11:31.537Z,99440.41
2023-02-22T22:13:58.374Z,99432.09
2023-02-22T22:16:27.142Z,99432.94
2023-02-22T22:18:56.180Z,99432.50
2023-02-22T22:21:24.466Z,99440.38
2023-02-22T22:23:53.883Z,99435.63
2023-02-22T22:26:23.229Z,99435.00
2023-02-22T22:28:55.008Z,99432.94
2023-02-22T22:31:24.511Z,99438.94
2023-02-22T22:33:53.194Z,99432.09
2023-02-22T22:36:23.822Z,99422.81
2023-02-22T22:38:50.726Z,99432.78
2023-02-22T22:41:20.256Z,99428.59
2023-02-22T22:43:47.734Z,99430.38
2023-02-22T22:46:17.398Z,99427.03
2023-02-22T22:48:45.494Z,99424.53
2023-02-22T22:51:15.513Z,99428.44
2023-02-22T22:53:46.617Z,99431.31
2023-02-22T22:56:17.755Z,99436.31
2023-02-22T22:58:51.835Z,99430.47
2023-02-22T23:01:22.360Z,99428.63
2023-02-22T23:03:53.514Z,99436.09
2023-02-22T23:06:22.646Z,99434.41
2023-02-22T23:08:59.511Z,99437.72
2023-02-22T23:11:28.703Z,99429.63
2023-02-22T23:13:56.467Z,99427.97
2023-02-22T23:16:24.442Z,99426.50
2023-02-22T23:18:51.637Z,99433.81
2023-02-22T23:21:19.802Z,99431.31
2023-02-22T23:23:46.804Z,99437.09
2023-02-22T23:26:15.034Z,99437.72
2023-02-22T23:28:42.346Z,99433.63
2023-02-22T23:31:12.893Z,99437.97
2023-02-22T23:33:40.774Z,99433.41
2023-02-22T23:36:08.885Z,99433.41
2023-02-22T23:38:35.930Z,99434.66
2023-02-22T23:41:04.230Z,99433.19
2023-02-22T23:43:32.821Z,99441.84
2023-02-22T23:46:05.993Z,99452.25
2023-02-22T23:48:32.862Z,99446.75
2023-02-22T23:51:05.214Z,99442.84
2023-02-22T23:53:32.066Z,99446.72
2023-02-22T23:56:01.026Z,99443.34
2023-02-22T23:58:27.820Z,99441.25
